Time;durP1;ratioP1;P1;durP2;ratioP2;P2;SDS_P1;SDS_P2;PMS_P1;PMS_P2;Temp;Humidity;BMP_temperature;BMP_pressure;BME280_temperature;BME280_humidity;BME280_pressure;Samples;Min_cycle;Max_cycle;Signal;HPM_P1;HPM_P2
2022/06/23 00:01:01;;;;;;;;;;;;;;;16.38;61.43;99164.84;5051433;28;881;-69
2022/06/23 00:03:33;;;;;;;;;;;;;;;16.32;61.44;99167.50;5052046;28;849;-68
2022/06/23 00:06:02;;;;;;;;;;;;;;;16.38;60.64;99164.84;5052169;28;849;-69
2022/06/23 00:08:28;;;;;;;;;;;;;;;16.50;59.77;99171.59;5034529;28;1523;-69
2022/06/23 00:10:58;;;;;;;;;;;;;;;16.58;59.23;99178.44;5051969;28;912;-68
2022/06/23 00:13:36;;;;;;;;;;;;;;;16.63;58.92;99172.25;5052249;28;881;-69
2022/06/23 00:16:04;;;;;;;;;;;;;;;16.66;58.59;99164.97;5051867;28;823;-69
2022/06/23 00:18:36;;;;;;;;;;;;;;;16.62;59.06;99167.13;5051716;28;1943;-69
2022/06/23 00:21:04;;;;;;;;;;;;;;;16.59;59.00;99163.25;5051848;28;889;-69
2022/06/23 00:23:33;;;;;;;;;;;;;;;16.55;59.31;99159.81;5052179;28;803;-70
2022/06/23 00:26:07;;;;;;;;;;;;;;;16.51;59.77;99159.19;5052066;28;811;-69
2022/06/23 00:28:45;;;;;;;;;;;;;;;16.55;59.97;99154.25;5051846;28;783;-69
2022/06/23 00:31:20;;;;;;;;;;;;;;;16.41;61.25;99157.59;5051638;28;1217;-68
2022/06/23 00:33:47;;;;;;;;;;;;;;;16.23;63.22;99158.28;5051713;28;889;-69
2022/06/23 00:36:35;;;;;;;;;;;;;;;16.10;64.79;99164.72;5051575;28;841;-68
2022/06/23 00:39:05;;;;;;;;;;;;;;;16.04;66.33;99177.69;5033512;28;1918;-69
2022/06/23 00:41:37;;;;;;;;;;;;;;;16.01;66.97;99180.63;5051537;28;923;-69
2022/06/23 00:44:06;;;;;;;;;;;;;;;15.96;67.52;99173.63;5051595;28;818;-70
2022/06/23 00:46:44;;;;;;;;;;;;;;;15.87;68.54;99166.00;5051373;28;911;-70
2022/06/23 00:49:26;;;;;;;;;;;;;;;15.77;68.80;99172.72;5051509;28;823;-68
2022/06/23 00:51:55;;;;;;;;;;;;;;;15.51;69.93;99180.38;5051790;28;850;-69
2022/06/23 00:54:37;;;;;;;;;;;;;;;15.19;70.45;99181.47;5051628;28;866;-69
2022/06/23 00:57:07;;;;;;;;;;;;;;;14.85;71.75;99171.84;5051414;28;838;-69
2022/06/23 00:59:36;;;;;;;;;;;;;;;14.59;72.81;99171.09;5051257;28;1893;-69
2022/06/23 01:02:09;;;;;;;;;;;;;;;14.34;73.55;99161.50;5051671;28;873;-70
2022/06/23 01:05:08;;;;;;;;;;;;;;;14.15;74.62;99162.47;5051310;28;854;-70
2022/06/23 01:07:38;;;;;;;;;;;;;;;14.01;75.45;99178.31;5028562;28;1405;-70
2022/06/23 01:10:14;;;;;;;;;;;;;;;14.02;75.48;99182.69;5051532;28;1098;-69
2022/06/23 01:12:50;;;;;;;;;;;;;;;14.08;75.63;99188.44;5052523;28;885;-71
2022/06/23 01:15:20;;;;;;;;;;;;;;;14.18;75.29;99198.47;5055315;28;945;-69
2022/06/23 01:17:50;;;;;;;;;;;;;;;14.32;75.02;99200.09;5055481;28;1885;-70
2022/06/23 01:20:30;;;;;;;;;;;;;;;14.44;74.36;99190.94;5055244;28;842;-69
2022/06/23 01:22:56;;;;;;;;;;;;;;;14.47;74.13;99195.63;5055125;28;1019;-68
2022/06/23 01:25:23;;;;;;;;;;;;;;;14.45;74.13;99197.31;5055131;28;783;-68
2022/06/23 01:27:57;;;;;;;;;;;;;;;14.38;74.23;99198.31;5055039;28;864;-69
2022/06/23 01:30:26;;;;;;;;;;;;;;;14.33;74.34;99193.28;5055317;28;990;-68
2022/06/23 01:32:55;;;;;;;;;;;;;;;14.29;74.60;99195.38;5054791;28;1212;-69
2022/06/23 01:35:43;;;;;;;;;;;;;;;14.23;74.87;99194.38;5054998;28;869;-69
2022/06/23 01:38:10;;;;;;;;;;;;;;;14.16;75.22;99189.81;5049038;28;1910;-68
2022/06/23 01:40:36;;;;;;;;;;;;;;;14.04;75.81;99196.91;5054921;28;850;-69
2022/06/23 01:43:25;;;;;;;;;;;;;;;13.92;76.58;99183.75;5054744;28;795;-70
2022/06/23 01:45:55;;;;;;;;;;;;;;;13.86;76.62;99185.53;5054720;28;943;-69
2022/06/23 01:48:54;;;;;;;;;;;;;;;13.78;77.27;99182.16;5054723;28;880;-69
2022/06/23 01:51:26;;;;;;;;;;;;;;;13.76;77.35;99192.16;5054758;28;948;-70
2022/06/23 01:53:53;;;;;;;;;;;;;;;13.78;77.55;99186.94;5054656;28;814;-70
2022/06/23 01:56:28;;;;;;;;;;;;;;;13.74;77.60;99189.03;5054533;28;831;-70
2022/06/23 01:58:58;;;;;;;;;;;;;;;13.73;78.03;99191.03;5054461;28;1886;-70
2022/06/23 02:01:28;;;;;;;;;;;;;;;13.71;78.26;99192.69;5054528;28;890;-70
2022/06/23 02:04:01;;;;;;;;;;;;;;;13.69;78.31;99188.34;5054370;28;901;-70
2022/06/23 02:06:30;;;;;;;;;;;;;;;13.71;78.42;99193.47;5054896;28;853;-70
2022/06/23 02:09:23;;;;;;;;;;;;;;;13.79;78.08;99197.59;5036348;28;1281;-70
2022/06/23 02:11:51;;;;;;;;;;;;;;;13.93;77.29;99204.75;5034487;28;1209;-69
2022/06/23 02:14:19;;;;;;;;;;;;;;;14.03;76.75;99209.22;5054105;28;890;-71
2022/06/23 02:16:48;;;;;;;;;;;;;;;14.07;76.17;99198.78;5054125;28;893;-70
2022/06/23 02:19:20;;;;;;;;;;;;;;;14.07;76.07;99206.38;5054111;28;1881;-71
2022/06/23 02:21:51;;;;;;;;;;;;;;;14.20;75.16;99214.72;5054084;28;794;-70
2022/06/23 02:24:28;;;;;;;;;;;;;;;14.34;74.44;99219.88;5053464;28;799;-70
2022/06/23 02:27:01;;;;;;;;;;;;;;;14.43;74.09;99227.56;5054020;28;886;-71
2022/06/23 02:29:31;;;;;;;;;;;;;;;14.47;73.88;99225.47;5053948;28;865;-70
2022/06/23 02:32:24;;;;;;;;;;;;;;;14.50;73.90;99221.78;5053775;28;1198;-69
2022/06/23 02:35:11;;;;;;;;;;;;;;;14.52;73.70;99226.91;5038184;28;1151;-70
2022/06/23 02:37:47;;;;;;;;;;;;;;;14.53;73.84;99228.44;5028625;28;1906;-69
2022/06/23 02:40:25;;;;;;;;;;;;;;;14.51;73.47;99209.44;5053808;28;955;-70
2022/06/23 02:42:57;;;;;;;;;;;;;;;14.47;73.49;99215.09;5053745;28;822;-70
2022/06/23 02:45:43;;;;;;;;;;;;;;;14.46;73.68;99212.75;5053556;28;946;-69
2022/06/23 02:48:30;;;;;;;;;;;;;;;14.45;73.50;99214.75;5053656;28;929;-70
2022/06/23 02:51:15;;;;;;;;;;;;;;;14.55;73.05;99212.09;5053500;28;1116;-68
2022/06/23 02:54:09;;;;;;;;;;;;;;;14.59;72.84;99212.81;5053866;28;889;-70
2022/06/23 02:56:58;;;;;;;;;;;;;;;14.59;72.76;99224.69;5053444;28;858;-70
2022/06/23 02:59:28;;;;;;;;;;;;;;;14.63;72.74;99211.47;5053314;28;1910;-70
2022/06/23 03:02:01;;;;;;;;;;;;;;;14.64;72.74;99213.03;5053369;28;803;-69
2022/06/23 03:04:30;;;;;;;;;;;;;;;14.72;72.44;99215.59;5050741;28;1304;-70
2022/06/23 03:07:03;;;;;;;;;;;;;;;14.85;71.76;99216.34;5053186;28;853;-70
2022/06/23 03:09:35;;;;;;;;;;;;;;;15.02;71.12;99219.78;5053170;28;853;-70
2022/06/23 03:12:06;;;;;;;;;;;;;;;15.17;70.19;99220.91;5053485;28;818;-70
2022/06/23 03:14:56;;;;;;;;;;;;;;;15.38;69.28;99229.75;5053036;28;822;-71
2022/06/23 03:17:40;;;;;;;;;;;;;;;15.54;68.98;99229.59;5035137;28;1279;-68
2022/06/23 03:20:13;;;;;;;;;;;;;;;15.56;69.28;99226.38;5052994;28;855;-68
2022/06/23 03:22:39;;;;;;;;;;;;;;;15.57;69.40;99239.06;5052964;28;826;-69
2022/06/23 03:25:29;;;;;;;;;;;;;;;15.62;69.28;99239.28;5052944;28;845;-69
2022/06/23 03:27:55;;;;;;;;;;;;;;;15.71;68.98;99233.00;5047238;28;1418;-69
2022/06/23 03:30:27;;;;;;;;;;;;;;;15.78;68.76;99241.13;5053043;28;888;-70
2022/06/23 03:32:57;;;;;;;;;;;;;;;15.88;68.79;99239.22;5052695;28;1253;-69
2022/06/23 03:35:27;;;;;;;;;;;;;;;15.99;68.58;99242.38;5052634;28;787;-70
2022/06/23 03:38:08;;;;;;;;;;;;;;;16.11;68.40;99238.75;5052613;28;1990;-70
2022/06/23 03:43:32;;;;;;;;;;;;;;;16.38;69.06;99231.78;5052454;28;696;-68
2022/06/23 03:46:01;;;;;;;;;;;;;;;16.51;69.75;99228.91;5052488;28;814;-68
2022/06/23 03:48:32;;;;;;;;;;;;;;;16.67;70.10;99225.13;5052445;28;873;-68
2022/06/23 03:51:25;;;;;;;;;;;;;;;16.82;70.61;99231.72;5052438;28;823;-68
2022/06/23 03:53:59;;;;;;;;;;;;;;;16.94;70.28;99225.28;5050460;28;1047;-68
2022/06/23 03:56:33;;;;;;;;;;;;;;;17.08;70.28;99228.72;5034427;28;1754;-69
2022/06/23 03:59:07;;;;;;;;;;;;;;;17.17;70.04;99242.69;5052222;28;2000;-69
2022/06/23 04:01:44;;;;;;;;;;;;;;;17.32;69.42;99240.09;5052149;28;814;-68
2022/06/23 04:04:18;;;;;;;;;;;;;;;17.49;68.54;99229.41;5052367;28;854;-68
2022/06/23 04:06:46;;;;;;;;;;;;;;;17.63;68.04;99234.41;5034215;28;1173;-68
2022/06/23 04:09:24;;;;;;;;;;;;;;;17.82;68.04;99231.63;5052117;28;819;-69
2022/06/23 04:12:03;;;;;;;;;;;;;;;18.05;67.66;99231.00;5051989;28;854;-69
2022/06/23 04:14:32;;;;;;;;;;;;;;;18.34;66.74;99232.50;5051932;28;897;-69
2022/06/23 04:17:25;;;;;;;;;;;;;;;18.65;65.92;99240.66;5034538;28;1188;-69
2022/06/23 04:20:00;;;;;;;;;;;;;;;19.10;64.90;99235.38;5032164;28;1906;-68
2022/06/23 04:22:30;;;;;;;;;;;;;;;19.46;63.95;99225.16;5051888;28;861;-68
2022/06/23 04:24:59;;;;;;;;;;;;;;;19.77;63.61;99230.44;5052046;28;795;-69
2022/06/23 04:27:29;;;;;;;;;;;;;;;20.05;63.18;99236.56;5051683;28;877;-68
2022/06/23 04:29:57;;;;;;;;;;;;;;;20.44;62.91;99241.34;5052379;28;787;-68
2022/06/23 04:32:30;;;;;;;;;;;;;;;20.67;62.82;99248.13;5051854;28;1352;-69
2022/06/23 04:35:06;;;;;;;;;;;;;;;20.80;61.62;99242.97;5051579;28;819;-70
2022/06/23 04:37:51;;;;;;;;;;;;;;;20.96;60.59;99248.09;5051682;28;897;-69
2022/06/23 04:40:21;;;;;;;;;;;;;;;21.10;58.11;99235.28;5051587;28;822;-68
2022/06/23 04:42:57;;;;;;;;;;;;;;;21.10;58.18;99240.09;5051471;28;547;-68
2022/06/23 04:45:29;;;;;;;;;;;;;;;21.04;58.68;99242.06;5051591;28;854;-68
2022/06/23 04:47:58;;;;;;;;;;;;;;;20.99;59.32;99251.94;5050923;28;886;-68
2022/06/23 04:50:43;;;;;;;;;;;;;;;20.98;59.06;99254.00;5051557;28;811;-69
2022/06/23 04:53:20;;;;;;;;;;;;;;;21.07;56.87;99253.09;5033482;28;1287;-70
2022/06/23 04:55:54;;;;;;;;;;;;;;;21.27;54.31;99265.63;5051551;28;890;-69
2022/06/23 04:58:22;;;;;;;;;;;;;;;21.56;51.90;99268.38;5051594;28;1941;-68
2022/06/23 05:00:50;;;;;;;;;;;;;;;21.81;51.03;99264.09;5051328;28;807;-66
2022/06/23 05:03:20;;;;;;;;;;;;;;;21.90;49.74;99271.59;5033506;28;1296;-69
2022/06/23 05:06:06;;;;;;;;;;;;;;;22.04;49.21;99281.22;5051248;28;842;-70
2022/06/23 05:08:36;;;;;;;;;;;;;;;22.31;48.73;99285.63;5050717;28;1556;-69
2022/06/23 05:11:14;;;;;;;;;;;;;;;22.50;48.38;99288.88;5051265;28;814;-68
2022/06/23 05:13:46;;;;;;;;;;;;;;;22.68;47.21;99289.81;5052059;28;818;-70
2022/06/23 05:16:36;;;;;;;;;;;;;;;22.92;46.52;99287.47;5051266;28;1258;-69
2022/06/23 05:19:18;;;;;;;;;;;;;;;23.15;45.82;99285.63;5051135;28;1894;-69
2022/06/23 05:21:47;;;;;;;;;;;;;;;23.46;45.75;99286.06;5033534;28;1102;-71
2022/06/23 05:24:17;;;;;;;;;;;;;;;23.47;44.03;99284.75;5051194;28;905;-70
2022/06/23 05:26:49;;;;;;;;;;;;;;;23.60;42.94;99290.75;5051133;28;806;-70
2022/06/23 05:29:25;;;;;;;;;;;;;;;23.97;40.71;99289.91;5051156;28;830;-69
2022/06/23 05:31:58;;;;;;;;;;;;;;;24.34;39.17;99281.25;5051099;28;1193;-69
2022/06/23 05:34:27;;;;;;;;;;;;;;;24.88;38.31;99282.34;5051097;28;924;-71
2022/06/23 05:37:02;;;;;;;;;;;;;;;25.68;37.39;99288.13;5051069;28;858;-69
2022/06/23 05:39:36;;;;;;;;;;;;;;;26.21;36.75;99295.91;5050966;28;1934;-69
2022/06/23 05:42:08;;;;;;;;;;;;;;;26.57;37.30;99291.06;5051101;28;826;-69
2022/06/23 05:44:42;;;;;;;;;;;;;;;27.28;34.53;99283.78;5051182;28;882;-70
2022/06/23 05:47:11;;;;;;;;;;;;;;;27.54;34.71;99291.75;5033288;28;1200;-69
2022/06/23 05:49:41;;;;;;;;;;;;;;;27.38;33.98;99282.13;5050879;28;870;-70
2022/06/23 05:52:30;;;;;;;;;;;;;;;27.49;34.14;99284.84;5051166;28;811;-70
2022/06/23 05:55:01;;;;;;;;;;;;;;;27.91;33.81;99290.31;5033034;28;1591;-69
2022/06/23 05:57:34;;;;;;;;;;;;;;;28.27;33.79;99295.75;5051117;28;862;-69
2022/06/23 06:00:14;;;;;;;;;;;;;;;28.06;34.33;99309.75;5053762;28;1890;-69
2022/06/23 06:02:53;;;;;;;;;;;;;;;28.08;33.99;99307.16;5054792;28;791;-69
2022/06/23 06:05:32;;;;;;;;;;;;;;;28.06;34.35;99306.91;5054402;28;807;-70
2022/06/23 06:08:01;;;;;;;;;;;;;;;28.79;32.42;99316.47;5054596;28;870;-74
2022/06/23 06:10:30;;;;;;;;;;;;;;;28.94;31.58;99321.66;5054283;28;906;-71
2022/06/23 06:12:57;;;;;;;;;;;;;;;28.92;31.61;99311.59;5054272;28;830;-71
2022/06/23 06:15:27;;;;;;;;;;;;;;;29.24;31.93;99313.66;5054277;28;873;-71
2022/06/23 06:17:59;;;;;;;;;;;;;;;29.83;31.12;99304.28;5054120;28;1890;-71
2022/06/23 06:20:26;;;;;;;;;;;;;;;29.98;30.74;99303.72;5054190;28;950;-70
2022/06/23 06:23:04;;;;;;;;;;;;;;;30.03;30.83;99306.44;5054030;28;901;-71
2022/06/23 06:25:33;;;;;;;;;;;;;;;29.68;30.29;99307.66;5054051;28;787;-72
2022/06/23 06:28:12;;;;;;;;;;;;;;;29.93;30.25;99289.03;5053956;28;889;-71
2022/06/23 06:30:41;;;;;;;;;;;;;;;31.26;29.55;99304.09;5053867;28;929;-67
2022/06/23 06:33:16;;;;;;;;;;;;;;;32.22;27.65;99302.22;5053709;28;1268;-69
2022/06/23 06:35:43;;;;;;;;;;;;;;;32.40;27.70;99317.50;5053890;28;818;-75
2022/06/23 06:38:12;;;;;;;;;;;;;;;32.45;26.40;99307.22;5053779;28;1934;-69
2022/06/23 06:40:40;;;;;;;;;;;;;;;32.79;26.49;99303.31;5053612;28;879;-69
2022/06/23 06:43:10;;;;;;;;;;;;;;;32.19;27.79;99306.19;5053665;28;794;-69
2022/06/23 06:45:37;;;;;;;;;;;;;;;31.92;28.25;99306.44;5053655;28;831;-68
2022/06/23 06:48:09;;;;;;;;;;;;;;;29.96;30.16;99309.19;5053670;28;838;-69
2022/06/23 06:50:45;;;;;;;;;;;;;;;28.73;32.25;99302.34;5053549;28;795;-69
2022/06/23 06:53:21;;;;;;;;;;;;;;;28.38;32.89;99312.66;5053602;28;846;-72
2022/06/23 06:55:53;;;;;;;;;;;;;;;27.98;33.66;99303.16;5053485;28;846;-70
2022/06/23 06:58:40;;;;;;;;;;;;;;;27.66;34.00;99304.53;5035455;28;1929;-71
2022/06/23 07:01:11;;;;;;;;;;;;;;;28.91;33.53;99301.53;5032469;28;1210;-70
2022/06/23 07:03:41;;;;;;;;;;;;;;;29.79;31.42;99313.19;5053425;28;881;-71
2022/06/23 07:06:19;;;;;;;;;;;;;;;30.15;30.93;99324.09;5053320;28;873;-71
2022/06/23 07:08:52;;;;;;;;;;;;;;;29.72;31.99;99330.91;5053309;28;810;-72
2022/06/23 07:11:22;;;;;;;;;;;;;;;29.57;31.85;99337.09;5034789;28;1234;-72
2022/06/23 07:13:50;;;;;;;;;;;;;;;30.50;31.95;99333.44;5053458;28;775;-70
2022/06/23 07:16:20;;;;;;;;;;;;;;;31.39;31.23;99326.06;5053123;28;806;-72
2022/06/23 07:18:51;;;;;;;;;;;;;;;32.10;29.13;99332.47;5053055;28;1885;-70
2022/06/23 07:21:21;;;;;;;;;;;;;;;32.17;28.75;99343.16;5052909;28;852;-70
2022/06/23 07:24:01;;;;;;;;;;;;;;;32.00;29.29;99342.88;5052959;28;900;-71
2022/06/23 07:26:31;;;;;;;;;;;;;;;31.64;30.35;99355.78;5052992;28;889;-72
2022/06/23 07:29:12;;;;;;;;;;;;;;;32.21;28.42;99360.72;5052787;28;834;-71
2022/06/23 07:31:47;;;;;;;;;;;;;;;32.87;28.76;99358.44;5052758;28;1299;-70
2022/06/23 07:34:19;;;;;;;;;;;;;;;33.28;29.04;99371.66;5052775;28;823;-72
2022/06/23 07:36:55;;;;;;;;;;;;;;;32.83;28.41;99367.41;5034819;28;1066;-70
2022/06/23 07:39:24;;;;;;;;;;;;;;;31.17;29.78;99370.25;5052482;28;1917;-69
2022/06/23 07:41:58;;;;;;;;;;;;;;;30.00;32.36;99366.59;5052594;28;849;-71
2022/06/23 07:44:44;;;;;;;;;;;;;;;28.85;33.16;99369.13;5034721;28;1294;-69
2022/06/23 07:47:11;;;;;;;;;;;;;;;27.92;34.79;99367.75;5052506;28;838;-71
2022/06/23 07:49:38;;;;;;;;;;;;;;;28.11;35.43;99374.25;5052491;28;831;-70
2022/06/23 07:52:06;;;;;;;;;;;;;;;29.30;34.33;99365.56;5052366;28;910;-71
2022/06/23 07:54:32;;;;;;;;;;;;;;;31.11;31.98;99362.59;5052388;28;842;-73
2022/06/23 07:56:59;;;;;;;;;;;;;;;32.02;29.17;99372.44;5034286;28;1402;-71
2022/06/23 07:59:32;;;;;;;;;;;;;;;32.04;30.16;99366.16;5052232;28;1959;-68
2022/06/23 08:02:09;;;;;;;;;;;;;;;33.35;28.67;99358.69;5052367;28;882;-71
2022/06/23 08:04:46;;;;;;;;;;;;;;;33.90;26.67;99357.28;5052206;28;853;-71
2022/06/23 08:07:13;;;;;;;;;;;;;;;34.24;27.17;99356.81;5052153;28;908;-72
2022/06/23 08:09:52;;;;;;;;;;;;;;;34.66;25.34;99358.38;5052018;28;842;-71
2022/06/23 08:18:04;;;;;;;;;;;;;;;34.89;24.64;99355.34;5052256;28;1881;-71
2022/06/23 08:20:33;;;;;;;;;;;;;;;34.68;24.70;99359.31;5051907;28;827;-72
2022/06/23 08:23:02;;;;;;;;;;;;;;;35.29;25.19;99349.53;5051211;28;814;-69
2022/06/23 08:25:29;;;;;;;;;;;;;;;35.69;24.62;99350.69;5052125;28;815;-72
2022/06/23 08:27:58;;;;;;;;;;;;;;;35.44;24.92;99347.84;5051850;28;1300;-71
2022/06/23 08:30:26;;;;;;;;;;;;;;;34.45;26.09;99355.78;5052045;28;931;-71
2022/06/23 08:32:54;;;;;;;;;;;;;;;33.72;25.82;99331.34;5051577;28;1423;-70
2022/06/23 08:35:39;;;;;;;;;;;;;;;33.43;27.00;99359.44;5051678;28;890;-71
2022/06/23 08:38:17;;;;;;;;;;;;;;;32.95;26.59;99347.78;5051791;28;1902;-71
2022/06/23 08:41:01;;;;;;;;;;;;;;;32.90;27.31;99348.72;5051616;28;802;-69
2022/06/23 08:43:53;;;;;;;;;;;;;;;32.43;26.92;99352.78;5051632;28;802;-71
2022/06/23 08:46:23;;;;;;;;;;;;;;;31.96;28.41;99346.06;5051554;28;905;-71
2022/06/23 08:49:13;;;;;;;;;;;;;;;31.44;28.42;99359.47;5051772;28;810;-71
2022/06/23 08:51:44;;;;;;;;;;;;;;;31.64;26.97;99343.59;5032236;28;1172;-69
2022/06/23 08:54:22;;;;;;;;;;;;;;;32.58;27.11;99338.53;5051606;28;822;-69
2022/06/23 08:57:00;;;;;;;;;;;;;;;32.12;26.91;99326.94;5051445;28;913;-69
2022/06/23 08:59:43;;;;;;;;;;;;;;;31.39;28.80;99317.50;5051850;28;1882;-69
2022/06/23 09:02:20;;;;;;;;;;;;;;;30.74;29.76;99312.38;5051443;28;874;-68
2022/06/23 09:05:02;;;;;;;;;;;;;;;30.57;30.13;99307.09;5051393;28;850;-67
2022/06/23 09:07:31;;;;;;;;;;;;;;;30.76;30.67;99297.56;5033346;28;1435;-69
2022/06/23 09:10:13;;;;;;;;;;;;;;;31.09;30.05;99299.63;5051549;28;794;-69
2022/06/23 09:12:46;;;;;;;;;;;;;;;31.67;28.91;99291.09;5051251;28;834;-68
2022/06/23 09:15:15;;;;;;;;;;;;;;;32.15;27.56;99291.50;5051574;28;901;-68
2022/06/23 09:17:54;;;;;;;;;;;;;;;32.29;27.60;99287.16;5051291;28;810;-68
2022/06/23 09:20:21;;;;;;;;;;;;;;;32.75;27.25;99284.44;5051361;28;873;-68
2022/06/23 09:23:10;;;;;;;;;;;;;;;32.85;27.66;99281.00;5051240;28;818;-68
2022/06/23 09:25:48;;;;;;;;;;;;;;;32.64;27.33;99284.78;5051139;28;799;-68
2022/06/23 09:28:16;;;;;;;;;;;;;;;32.26;28.07;99285.47;5051189;28;913;-69
2022/06/23 09:30:51;;;;;;;;;;;;;;;32.42;29.12;99291.22;5051210;28;951;-68
2022/06/23 09:33:18;;;;;;;;;;;;;;;32.53;27.89;99283.06;5051409;28;1250;-70
2022/06/23 09:36:03;;;;;;;;;;;;;;;33.18;28.08;99281.19;5054979;28;818;-68
2022/06/23 09:38:39;;;;;;;;;;;;;;;33.56;27.26;99269.66;5054946;28;1967;-70
2022/06/23 09:41:14;;;;;;;;;;;;;;;33.51;25.94;99270.66;5055245;28;878;-67
2022/06/23 09:44:08;;;;;;;;;;;;;;;33.03;26.51;99273.34;5054876;28;819;-68
2022/06/23 09:46:53;;;;;;;;;;;;;;;32.82;28.38;99268.59;5054846;28;799;-67
2022/06/23 09:49:22;;;;;;;;;;;;;;;32.61;28.54;99279.47;5054984;28;910;-69
2022/06/23 09:51:53;;;;;;;;;;;;;;;32.26;28.06;99278.97;5054762;28;861;-69
2022/06/23 09:54:22;;;;;;;;;;;;;;;31.72;28.62;99281.56;5054623;28;826;-67
2022/06/23 09:57:01;;;;;;;;;;;;;;;30.76;28.88;99278.38;5054552;28;853;-68
2022/06/23 09:59:40;;;;;;;;;;;;;;;30.44;29.95;99270.09;5054555;28;1949;-70
2022/06/23 10:02:06;;;;;;;;;;;;;;;30.30;30.54;99275.06;5054778;28;795;-69
2022/06/23 10:31:29;;;;;;;;;;;;;;;29.42;34.06;99283.56;5689914;22;1658;-67
2022/06/23 10:34:17;;;;;;;;;;;;;;;29.16;34.61;99281.47;5053977;28;963;-69
2022/06/23 10:37:04;;;;;;;;;;;;;;;28.55;35.05;99275.50;5054302;28;759;-68
2022/06/23 10:39:31;;;;;;;;;;;;;;;28.73;35.03;99276.00;5053742;28;1980;-66
2022/06/23 10:42:07;;;;;;;;;;;;;;;29.22;34.83;99275.69;5054103;28;814;-69
2022/06/23 10:44:43;;;;;;;;;;;;;;;29.50;33.16;99275.91;5053504;28;834;-68
2022/06/23 10:47:36;;;;;;;;;;;;;;;29.64;32.27;99275.91;5053272;28;817;-69
2022/06/23 10:50:11;;;;;;;;;;;;;;;29.78;31.99;99271.00;5054489;28;834;-67
2022/06/23 10:52:41;;;;;;;;;;;;;;;29.65;32.02;99268.91;5053669;28;869;-68
2022/06/23 10:55:26;;;;;;;;;;;;;;;29.42;32.20;99279.97;5053543;28;834;-70
2022/06/23 10:58:04;;;;;;;;;;;;;;;28.77;33.22;99284.97;5052125;28;1959;-68
2022/06/23 11:00:31;;;;;;;;;;;;;;;28.44;34.35;99292.69;5053360;28;803;-67
2022/06/23 11:03:22;;;;;;;;;;;;;;;28.05;34.82;99282.66;5035491;28;945;-70
2022/06/23 11:06:00;;;;;;;;;;;;;;;27.49;35.78;99303.94;5053691;28;818;-71
2022/06/23 11:08:30;;;;;;;;;;;;;;;26.91;36.65;99292.84;5053381;28;889;-71
2022/06/23 11:11:03;;;;;;;;;;;;;;;26.72;37.57;99302.03;5053340;28;885;-71
2022/06/23 11:13:42;;;;;;;;;;;;;;;26.28;38.11;99292.50;5035527;28;1203;-71
2022/06/23 11:16:15;;;;;;;;;;;;;;;25.90;39.14;99299.91;5053408;28;830;-68
2022/06/23 11:18:48;;;;;;;;;;;;;;;25.67;39.91;99302.81;5052979;28;1889;-70
2022/06/23 11:21:28;;;;;;;;;;;;;;;25.27;40.09;99317.03;5053169;28;843;-68
2022/06/23 11:24:30;;;;;;;;;;;;;;;24.91;41.39;99312.44;5052987;28;833;-71
2022/06/23 11:27:02;;;;;;;;;;;;;;;24.70;42.10;99306.25;5011113;28;1298;-69
2022/06/23 11:29:54;;;;;;;;;;;;;;;24.62;42.77;99303.94;5045945;28;951;-69
2022/06/23 11:32:44;;;;;;;;;;;;;;;24.45;43.36;99308.75;5052642;28;1193;-69
2022/06/23 11:35:30;;;;;;;;;;;;;;;24.21;43.74;99301.50;5047449;28;1267;-67
2022/06/23 11:37:57;;;;;;;;;;;;;;;24.09;44.65;99302.78;5052677;28;1906;-68
2022/06/23 11:40:23;;;;;;;;;;;;;;;24.03;45.21;99299.94;5035020;28;921;-69
2022/06/23 11:43:04;;;;;;;;;;;;;;;24.08;45.67;99303.28;5052903;28;818;-69
2022/06/23 11:45:49;;;;;;;;;;;;;;;24.12;45.82;99301.75;5052590;28;889;-69
2022/06/23 11:48:34;;;;;;;;;;;;;;;24.25;46.07;99299.22;5052556;28;888;-69
2022/06/23 11:51:11;;;;;;;;;;;;;;;24.34;46.34;99303.84;5052576;28;861;-69
2022/06/23 11:53:47;;;;;;;;;;;;;;;24.26;46.23;99305.66;5052448;28;910;-69
2022/06/23 11:56:36;;;;;;;;;;;;;;;24.20;46.43;99291.50;5034368;28;1152;-67
2022/06/23 11:59:05;;;;;;;;;;;;;;;24.18;46.88;99298.94;5046581;28;2016;-68
2022/06/23 12:01:33;;;;;;;;;;;;;;;24.03;46.89;99301.97;5052289;28;957;-69
2022/06/23 12:04:10;;;;;;;;;;;;;;;23.83;46.89;99300.09;5052148;28;869;-69
2022/06/23 12:06:40;;;;;;;;;;;;;;;23.67;47.40;99306.41;5052250;28;862;-69
2022/06/23 12:09:25;;;;;;;;;;;;;;;23.56;47.43;99296.63;5034248;28;1152;-68
2022/06/23 12:11:51;;;;;;;;;;;;;;;23.49;47.53;99304.78;5052032;28;854;-66
2022/06/23 12:14:23;;;;;;;;;;;;;;;23.54;47.71;99299.16;5052070;28;862;-67
2022/06/23 12:16:55;;;;;;;;;;;;;;;23.58;47.91;99310.22;5052075;28;825;-68
2022/06/23 12:19:25;;;;;;;;;;;;;;;23.82;47.69;99309.84;5051910;28;1974;-67
2022/06/23 12:21:52;;;;;;;;;;;;;;;24.15;47.76;99300.72;5051937;28;865;-67
2022/06/23 12:24:18;;;;;;;;;;;;;;;24.43;47.72;99303.63;5051994;28;798;-68
2022/06/23 12:26:55;;;;;;;;;;;;;;;24.61;47.62;99315.75;5051920;28;869;-67
2022/06/23 12:29:28;;;;;;;;;;;;;;;24.79;47.39;99318.09;5033823;28;1258;-70
2022/06/23 12:31:57;;;;;;;;;;;;;;;24.79;47.11;99317.28;5051813;28;1228;-69
2022/06/23 12:34:44;;;;;;;;;;;;;;;24.80;46.47;99308.31;5052009;28;802;-68
2022/06/23 12:37:11;;;;;;;;;;;;;;;24.69;45.16;99319.63;5051719;28;861;-68
2022/06/23 12:39:50;;;;;;;;;;;;;;;24.41;45.47;99311.84;5051593;28;1918;-68
2022/06/23 12:42:23;;;;;;;;;;;;;;;24.09;43.70;99301.97;5051745;28;798;-68
2022/06/23 12:45:13;;;;;;;;;;;;;;;24.03;41.91;99297.09;5051694;28;802;-71
2022/06/23 12:48:09;;;;;;;;;;;;;;;24.10;43.07;99309.94;5032542;28;1315;-68
2022/06/23 12:50:51;;;;;;;;;;;;;;;24.12;44.70;99306.63;5042429;28;1308;-68
2022/06/23 12:53:24;;;;;;;;;;;;;;;24.05;45.46;99305.84;5051508;28;883;-69
2022/06/23 12:56:09;;;;;;;;;;;;;;;24.03;40.28;99318.91;5051500;28;830;-70
2022/06/23 12:58:43;;;;;;;;;;;;;;;24.25;38.05;99307.69;5051409;28;1939;-69
2022/06/23 13:01:10;;;;;;;;;;;;;;;24.48;38.37;99307.75;5051627;28;838;-68
2022/06/23 13:06:49;;;;;;;;;;;;;;;24.09;43.18;99294.31;5051433;28;625;-69
2022/06/23 13:09:15;;;;;;;;;;;;;;;23.92;44.04;99291.44;5053778;28;798;-69
2022/06/23 13:11:50;;;;;;;;;;;;;;;23.96;44.38;99280.66;5055465;28;881;-69
2022/06/23 13:14:22;;;;;;;;;;;;;;;24.11;44.95;99277.63;5055484;28;806;-69
2022/06/23 13:16:58;;;;;;;;;;;;;;;24.41;44.89;99277.16;5055481;28;771;-67
2022/06/23 13:19:45;;;;;;;;;;;;;;;24.97;44.43;99279.28;5055289;28;1945;-67
2022/06/23 13:22:12;;;;;;;;;;;;;;;25.61;44.17;99294.34;5054547;28;1561;-68
2022/06/23 13:24:41;;;;;;;;;;;;;;;25.79;44.00;99287.31;5055481;28;893;-68
2022/06/23 13:27:19;;;;;;;;;;;;;;;25.76;44.25;99277.06;5055251;28;810;-68
2022/06/23 13:29:58;;;;;;;;;;;;;;;25.85;45.02;99281.66;5055057;28;802;-67
2022/06/23 13:32:33;;;;;;;;;;;;;;;25.92;45.53;99289.63;5054700;28;1343;-68
2022/06/23 13:35:11;;;;;;;;;;;;;;;25.92;46.63;99283.94;5037071;28;831;-68
2022/06/23 13:37:50;;;;;;;;;;;;;;;25.78;47.71;99296.34;5054993;28;846;-68
2022/06/23 13:40:54;;;;;;;;;;;;;;;25.46;49.02;99288.22;5054958;28;1910;-68
2022/06/23 13:43:21;;;;;;;;;;;;;;;25.00;48.40;99295.19;5013077;28;1327;-67
2022/06/23 13:46:06;;;;;;;;;;;;;;;24.76;48.40;99299.31;5013070;28;889;-69
2022/06/23 13:48:45;;;;;;;;;;;;;;;24.81;48.39;99301.38;5013258;28;919;-68
2022/06/23 13:51:32;;;;;;;;;;;;;;;24.74;47.59;99295.47;5012961;28;874;-69
2022/06/23 13:54:02;;;;;;;;;;;;;;;24.55;47.51;99303.66;5012930;28;1060;-69
2022/06/23 13:56:41;;;;;;;;;;;;;;;24.46;47.48;99307.47;5012851;28;862;-67
2022/06/23 13:59:26;;;;;;;;;;;;;;;24.38;47.43;99303.59;5012640;28;1886;-68
2022/06/23 14:01:56;;;;;;;;;;;;;;;24.32;47.84;99312.06;5012669;28;863;-67
2022/06/23 14:04:35;;;;;;;;;;;;;;;24.25;48.11;99312.56;5013037;28;875;-67
2022/06/23 14:07:16;;;;;;;;;;;;;;;24.17;48.48;99317.16;5012599;28;869;-69
2022/06/23 14:09:45;;;;;;;;;;;;;;;24.08;48.80;99318.16;5012705;28;846;-67
2022/06/23 14:12:15;;;;;;;;;;;;;;;23.98;48.73;99305.53;5012568;28;878;-70
2022/06/23 14:14:55;;;;;;;;;;;;;;;23.91;48.55;99314.50;5043782;28;911;-69
2022/06/23 14:17:33;;;;;;;;;;;;;;;23.87;48.64;99322.44;5054314;28;813;-73
2022/06/23 14:20:10;;;;;;;;;;;;;;;23.78;48.92;99332.66;5052860;28;1960;-67
2022/06/23 14:22:44;;;;;;;;;;;;;;;23.73;49.53;99336.19;5054277;28;853;-68
2022/06/23 14:25:20;;;;;;;;;;;;;;;23.68;49.47;99328.47;5054166;28;806;-67